Terminal Aerodrome Forecast
Issued by NWS Los Angeles, CA

Home | Current Version | Previous Version | Text Only | Print | Product List | Glossary On
Versions: 1 2 3 4 5 6 7 8 9 10 11 12 13 14 15 16 17 18 19 20 21 22 23
952
FTUS46 KLOX 200545
TAFSMX
TAF
KSMX 200545Z 2006/2106 11006KT P6SM SCT015 BKN040
     FM201000 14010KT 5SM -RA BR BKN015 OVC025
     FM201300 14018G28KT 2SM RA BR BKN007 OVC015
     FM201800 28020G30KT 4SM -SHRA BR BKN015 OVC025
     FM210200 30014KT P6SM VCSH BKN025=

USA.gov is the U.S. government's official web portal to all federal, state and local government web resources and services.